Meteorología y climatología de Navarra
Datos de la estación - Meteo Navarra

Estación de Getadar GN

Altitud 710 m.


Datos desde el 09/11/2018 hasta el 10/11/2018 en horario solar
Los datos son PROVISIONALES

Anterior Página 1 de 1 Siguiente Descargar: Formato para Excel 2000 o superior   Formato csv   Formato para OpenOffice Calc
Fecha Temperatura Humedad relativa Radiación global Insolación Precipitación Velocidad viento 10 m Velocidad viento 10 m Dirección viento 10 m
ºC % W/m² s l/m² m/s km/h º
09/11/2018 0:00 6.0 98 0.0 0 0.6 3.2 11.6 315
09/11/2018 0:10 5.9 98 0.0 0 0.5 2.9 10.6 325
09/11/2018 0:20 5.9 98 0.0 0 0.0 2.6 9.4 331
09/11/2018 0:30 5.9 98 0.0 0 0.1 2.6 9.3 351
09/11/2018 0:40 5.8 98 0.0 0 0.0 2.3 8.4 349
09/11/2018 0:50 5.8 98 0.0 0 0.0 2.5 9.0 349
09/11/2018 1:00 5.8 98 0.0 0 0.0 2.2 8.0 355
09/11/2018 1:10 5.8 98 0.0 0 0.0 1.9 6.9 356
09/11/2018 1:20 5.8 98 0.0 0 0.0 2.1 7.5 334
09/11/2018 1:30 5.7 98 0.0 0 0.0 3.1 11.1 326
09/11/2018 1:40 5.7 98 0.0 0 0.0 2.9 10.3 337
09/11/2018 1:50 5.6 98 0.0 0 0.0 1.9 6.8 306
09/11/2018 2:00 5.6 98 0.0 0 0.0 1.7 6.2 296
09/11/2018 2:10 5.6 98 0.0 0 0.0 1.4 4.9 351
09/11/2018 2:20 5.6 98 0.0 0 0.0 1.6 5.8 359
09/11/2018 2:30 5.5 98 0.0 0 0.0 2.5 8.8 336
09/11/2018 2:40 5.5 98 0.0 0 0.0 2.6 9.4 332
09/11/2018 2:50 5.5 98 0.0 0 0.0 2.3 8.3 332
09/11/2018 3:00 5.5 98 0.0 0 0.0 2.0 7.2 340
09/11/2018 3:10 5.4 98 0.0 0 0.0 2.1 7.5 348
09/11/2018 3:20 5.4 98 0.0 0 0.0 2.6 9.3 343
09/11/2018 3:30 5.5 98 0.0 0 0.0 2.5 8.8 334
09/11/2018 3:40 5.6 98 0.0 0 0.0 2.2 7.8 332
09/11/2018 3:50 5.6 98 0.0 0 0.0 2.4 8.5 331
09/11/2018 4:00 5.6 98 0.0 0 0.0 2.2 7.8 326
09/11/2018 4:10 5.6 98 0.0 0 0.0 2.4 8.6 321
09/11/2018 4:20 5.7 98 0.0 0 0.0 2.8 10.0 319
09/11/2018 4:30 5.7 98 0.0 0 0.0 2.9 10.4 321
09/11/2018 4:40 5.8 97 0.0 0 0.0 3.0 10.8 324
09/11/2018 4:50 5.8 97 0.0 0 0.0 3.0 10.8 328
09/11/2018 5:00 5.7 97 0.0 0 0.0 2.8 10.1 329
09/11/2018 5:10 5.7 97 0.0 0 0.0 2.6 9.3 330
09/11/2018 5:20 5.7 97 0.0 0 0.0 2.9 10.5 331
09/11/2018 5:30 5.7 97 0.0 0 0.1 3.1 11.0 331
09/11/2018 5:40 5.8 97 0.0 0 0.0 3.8 13.6 332
09/11/2018 5:50 5.8 97 0.0 0 0.0 3.3 12.0 331
09/11/2018 6:00 5.8 97 0.0 0 0.0 3.4 12.2 329
09/11/2018 6:10 5.9 97 0.0 0 0.0 2.6 9.5 327
09/11/2018 6:20 6.0 97 0.0 0 0.0 2.7 9.6 320
09/11/2018 6:30 6.0 97 0.0 0 0.0 2.9 10.3 327
09/11/2018 6:40 6.1 97 0.0 0 0.0 2.6 9.4 341
09/11/2018 6:50 6.2 96 0.0 0 0.0 3.1 11.1 347
09/11/2018 7:00 6.2 96 0.0 0 0.0 3.0 10.8 347
09/11/2018 7:10 6.1 96 6.0 0 0.0 3.8 13.8 349
09/11/2018 7:20 6.1 96 28.2 234 0.0 2.7 9.7 349
09/11/2018 7:30 6.2 96 50.6 488 0.0 1.6 5.6 350
09/11/2018 7:40 6.2 96 109.3 600 0.0 1.7 6.0 319
09/11/2018 7:50 6.4 94 55.5 96 0.0 2.5 9.1 356
09/11/2018 8:00 6.4 93 50.0 0 0.0 2.6 9.5 339
09/11/2018 8:10 6.4 92 36.7 0 0.0 3.7 13.1 330
09/11/2018 8:20 6.4 91 65.8 0 0.0 2.9 10.4 338
09/11/2018 8:30 6.6 91 148.4 512 0.0 3.0 10.9 332
09/11/2018 8:40 6.9 89 160.6 564 0.0 3.5 12.6 333
09/11/2018 8:50 7.0 87 216.8 474 0.0 3.6 13.0 332
09/11/2018 9:00 7.3 87 197.9 514 0.0 3.8 13.8 327
09/11/2018 9:10 7.4 87 190.9 454 0.0 2.8 10.0 330
09/11/2018 9:20 7.5 87 154.6 0 0.0 2.7 9.8 342
09/11/2018 9:30 7.4 87 187.1 122 0.0 2.8 10.2 329
09/11/2018 9:40 7.5 86 165.5 0 0.0 4.3 15.3 325
09/11/2018 9:50 7.5 86 253.7 482 0.0 3.7 13.1 324
09/11/2018 10:00 7.9 85 308.8 600 0.0 3.6 12.9 319
09/11/2018 10:10 8.2 85 207.0 180 0.0 3.1 11.0 318
09/11/2018 10:20 7.7 87 175.6 0 0.0 2.6 9.3 311
09/11/2018 10:30 7.8 88 196.1 0 0.0 2.1 7.5 312
09/11/2018 10:40 7.7 87 205.0 0 0.0 3.0 10.6 311
09/11/2018 10:50 7.7 88 190.7 0 0.0 2.1 7.4 318
09/11/2018 11:00 8.0 87 475.2 540 0.0 1.6 5.6 316
09/11/2018 11:10 8.9 83 487.3 600 0.0 2.3 8.4 322
09/11/2018 11:20 9.6 81 561.5 600 0.0 2.0 7.3 305
09/11/2018 11:30 9.6 79 424.6 416 0.0 2.3 8.4 303
09/11/2018 11:40 9.1 80 261.8 202 0.0 2.1 7.7 294
09/11/2018 11:50 9.2 81 314.8 540 0.0 1.8 6.5 306
09/11/2018 12:00 9.1 79 282.7 420 0.0 2.7 9.7 316
09/11/2018 12:10 9.2 78 387.4 482 0.0 2.2 7.7 322
09/11/2018 12:20 9.6 75 415.8 520 0.0 1.5 5.2 298
09/11/2018 12:30 9.9 75 330.6 344 0.0 1.5 5.5 303
09/11/2018 12:40 9.4 74 238.3 0 0.0 2.1 7.4 288
09/11/2018 12:50 9.3 74 195.7 0 0.0 1.5 5.3 312
09/11/2018 13:00 9.4 75 276.5 314 0.0 1.8 6.6 307
09/11/2018 13:10 9.7 74 403.0 424 0.0 2.4 8.7 287
09/11/2018 13:20 10.4 70 533.0 600 0.0 1.7 6.0 287
09/11/2018 13:30 10.6 68 507.3 600 0.0 2.5 9.0 288
09/11/2018 13:40 10.5 69 497.8 600 0.0 2.7 9.6 311
09/11/2018 13:50 10.6 68 274.7 388 0.0 1.8 6.4 284
09/11/2018 14:00 10.6 67 449.9 600 0.0 2.0 7.1 308
09/11/2018 14:10 11.6 63 489.3 600 0.0 1.8 6.6 268
09/11/2018 14:20 11.5 64 400.8 600 0.0 2.4 8.6 270
09/11/2018 14:30 10.9 64 197.5 290 0.0 2.9 10.3 266
09/11/2018 14:40 10.6 66 374.8 566 0.0 1.7 6.0 298
09/11/2018 14:50 11.1 66 328.6 600 0.0 1.7 6.0 307
09/11/2018 15:00 10.7 66 294.7 600 0.0 1.3 4.8 281
09/11/2018 15:10 11.5 64 265.8 600 0.0 1.0 3.4 259
09/11/2018 15:20 11.5 63 238.4 600 0.0 1.4 4.9 294
09/11/2018 15:30 11.4 63 214.2 600 0.0 1.1 4.0 299
09/11/2018 15:40 11.3 63 187.3 600 0.0 1.2 4.3 323
09/11/2018 15:50 11.0 64 128.3 496 0.0 0.6 2.1 296
09/11/2018 16:00 10.6 66 60.1 140 0.0 0.5 1.8 285
09/11/2018 16:10 10.2 68 109.1 600 0.0 0.7 2.4 285
09/11/2018 16:20 10.4 67 82.6 600 0.0 0.9 3.3 278
09/11/2018 16:30 9.3 69 37.4 530 0.0 1.1 4.0 311
09/11/2018 16:40 9.0 69 20.2 0 0.0 1.3 4.7 286
09/11/2018 16:50 8.8 69 0.8 0 0.0 0.8 2.9 257
09/11/2018 17:00 8.4 70 0.0 0 0.0 0.6 2.1 231
09/11/2018 17:10 7.9 74 0.0 0 0.0 0.2 0.6 282
09/11/2018 17:20 7.4 77 0.0 0 0.0 0.5 1.9 226
09/11/2018 17:30 6.3 84 0.0 0 0.0 1.1 3.9 7
09/11/2018 17:40 6.2 83 0.0 0 0.0 1.1 3.9 332
09/11/2018 17:50 6.4 80 0.0 0 0.0 1.1 3.8 325
09/11/2018 18:00 6.4 79 0.0 0 0.0 1.6 5.6 8
09/11/2018 18:10 6.4 79 0.0 0 0.0 1.2 4.2 9
09/11/2018 18:20 6.5 78 0.0 0 0.0 1.2 4.4 55
09/11/2018 18:30 6.7 78 0.0 0 0.0 0.8 2.7 84
09/11/2018 18:40 6.7 78 0.0 0 0.0 0.6 2.3 107
09/11/2018 18:50 7.2 75 0.0 0 0.0 1.8 6.4 89
09/11/2018 19:00 7.7 72 0.0 0 0.0 1.4 5.2 51
09/11/2018 19:10 7.5 74 0.0 0 0.0 0.1 0.5 15
09/11/2018 19:20 7.3 74 0.0 0 0.0 0.3 1.2 266
09/11/2018 19:30 7.3 74 0.0 0 0.0 0.1 0.5 233
09/11/2018 19:40 7.3 74 0.0 0 0.0 0.4 1.3 151
09/11/2018 19:50 7.2 77 0.0 0 0.0 0.2 0.7 16
09/11/2018 20:00 7.2 77 0.0 0 0.0 0.6 2.1 159
09/11/2018 20:10 7.2 79 0.0 0 0.0 0.5 1.8 145
09/11/2018 20:20 7.2 80 0.0 0 0.0 0.5 1.7 147
09/11/2018 20:30 7.1 78 0.0 0 0.0 0.4 1.5 199
09/11/2018 20:40 6.9 80 0.0 0 0.0 0.8 2.7 193
09/11/2018 20:50 6.7 81 0.0 0 0.0 1.2 4.4 215
09/11/2018 21:00 6.4 83 0.0 0 0.0 0.8 3.0 183
09/11/2018 21:10 6.2 84 0.0 0 0.0 0.7 2.6 207
09/11/2018 21:20 6.2 86 0.0 0 0.0 0.6 2.1 210
09/11/2018 21:30 6.2 86 0.0 0 0.0 0.5 1.6 209
09/11/2018 21:40 6.3 86 0.0 0 0.0 1.0 3.6 171
09/11/2018 21:50 6.3 86 0.0 0 0.0 0.6 2.2 149
09/11/2018 22:00 6.2 87 0.0 0 0.0 0.9 3.2 135
09/11/2018 22:10 6.3 87 0.0 0 0.0 0.8 3.0 131
09/11/2018 22:20 6.3 87 0.0 0 0.0 0.7 2.7 143
09/11/2018 22:30 6.4 87 0.0 0 0.0 0.8 3.0 142
09/11/2018 22:40 6.4 86 0.0 0 0.0 1.1 4.1 152
09/11/2018 22:50 6.4 86 0.0 0 0.0 1.4 5.1 164
09/11/2018 23:00 6.4 86 0.0 0 0.0 1.1 4.0 175
09/11/2018 23:10 6.4 87 0.0 0 0.0 0.7 2.4 160
09/11/2018 23:20 6.3 88 0.0 0 0.0 0.9 3.3 132
09/11/2018 23:30 6.4 86 0.0 0 0.0 1.1 3.9 145
09/11/2018 23:40 6.5 86 0.0 0 0.0 1.1 4.1 135
09/11/2018 23:50 6.4 86 0.0 0 0.0 1.3 4.5 133
Anterior Página 1 de 1 Siguiente

NOTA: Tipo de datos según el color:
   - Valores diarios o 10 minutos correctos
   - Valores diarios calculados a partir de un número de datos 10 minutos menor que 144 y mayor que 120, o de un número de datos semihorarios menor que 48 y mayor que 40 (caso de las estaciones de Riegos de Navarra y del MARM)
   - Valores diez minutos estimados


Contacto        Enlaces        Aviso legal